Time;durP1;ratioP1;P1;durP2;ratioP2;P2;SDS_P1;SDS_P2;PMS_P1;PMS_P2;Temp;Humidity;BMP_temperature;BMP_pressure;BME280_temperature;BME280_humidity;BME280_pressure;Samples;Min_cycle;Max_cycle;Signal;HPM_P1;HPM_P2
2024/02/23 00:00:06;;;;;;;;;;;;;;;;;;5032370;28;3120;-54
2024/02/23 00:02:31;;;;;;;;;;;;;;;;;;5038194;28;6003;-52
2024/02/23 00:04:57;;;;;;;;;;;;;;;;;;5025022;28;5118;-51
2024/02/23 00:07:22;;;;;;;;;;;;;;;;;;5028576;28;4949;-48
2024/02/23 00:09:47;;;;;;;;;;;;;;;;;;5028014;28;5183;-50
2024/02/23 00:12:13;;;;;;;;;;;;;;;;;;5027643;28;5014;-51
2024/02/23 00:14:39;;;;;;;;;;;;;;;;;;5029177;28;3223;-52
2024/02/23 00:17:04;;;;;;;;;;;;;;;;;;5012760;28;5184;-52
2024/02/23 00:19:30;;;;;;;;;;;;;;;;;;5029209;28;5056;-51
2024/02/23 00:21:55;;;;;;;;;;;;;;;;;;5025079;28;5109;-48
2024/02/23 00:24:20;;;;;;;;;;;;;;;;;;5034804;28;4554;-50
2024/02/23 00:26:46;;;;;;;;;;;;;;;;;;5030534;28;3263;-48
2024/02/23 00:29:11;;;;;;;;;;;;;;;;;;5023649;28;4462;-47
2024/02/23 00:31:42;;;;;;;;;;;;;;;;;;5020646;28;4542;-48
2024/02/23 00:34:12;;;;;;;;;;;;;;;;;;5024247;28;4544;-47
2024/02/23 00:36:38;;;;;;;;;;;;;;;;;;5021569;28;5157;-48
2024/02/23 00:39:03;;;;;;;;;;;;;;;;;;5023952;28;3483;-50
2024/02/23 00:41:29;;;;;;;;;;;;;;;;;;5030941;28;4988;-49
2024/02/23 00:43:54;;;;;;;;;;;;;;;;;;5016240;28;4646;-48
2024/02/23 00:46:19;;;;;;;;;;;;;;;;;;5027599;28;4695;-51
2024/02/23 00:48:44;;;;;;;;;;;;;;;;;;5014267;28;5226;-53
2024/02/23 00:51:10;;;;;;;;;;;;;;;;;;5027842;28;5112;-51
2024/02/23 00:53:35;;;;;;;;;;;;;;;;;;5031164;28;3234;-50
2024/02/23 00:56:00;;;;;;;;;;;;;;;;;;5009374;28;5149;-50
2024/02/23 00:58:26;;;;;;;;;;;;;;;;;;5026780;28;5110;-50
2024/02/23 01:00:51;;;;;;;;;;;;;;;;;;5030945;28;4688;-53
2024/02/23 01:03:16;;;;;;;;;;;;;;;;;;5026221;28;4910;-52
2024/02/23 01:05:42;;;;;;;;;;;;;;;;;;5035686;28;3436;-48
2024/02/23 01:08:08;;;;;;;;;;;;;;;;;;5025382;28;4678;-47
2024/02/23 01:10:33;;;;;;;;;;;;;;;;;;5030093;28;5052;-52
2024/02/23 01:12:58;;;;;;;;;;;;;;;;;;5017175;28;5177;-53
2024/02/23 01:15:23;;;;;;;;;;;;;;;;;;5027537;28;5023;-51
2024/02/23 01:17:49;;;;;;;;;;;;;;;;;;5029964;28;3145;-49
2024/02/23 01:20:14;;;;;;;;;;;;;;;;;;5028681;28;4998;-49
2024/02/23 01:22:39;;;;;;;;;;;;;;;;;;5037086;28;5309;-52
2024/02/23 01:25:05;;;;;;;;;;;;;;;;;;5035210;28;4731;-48
2024/02/23 01:27:30;;;;;;;;;;;;;;;;;;5024792;28;5100;-51
2024/02/23 01:29:55;;;;;;;;;;;;;;;;;;5035902;28;3341;-51
2024/02/23 01:32:21;;;;;;;;;;;;;;;;;;5033913;28;4657;-54
2024/02/23 01:34:47;;;;;;;;;;;;;;;;;;5033030;28;5124;-51
2024/02/23 01:37:12;;;;;;;;;;;;;;;;;;5020171;28;4528;-48
2024/02/23 01:39:37;;;;;;;;;;;;;;;;;;5041918;28;4901;-50
2024/02/23 01:42:03;;;;;;;;;;;;;;;;;;5015845;28;3327;-56
2024/02/23 01:44:28;;;;;;;;;;;;;;;;;;5032798;28;5035;-48
2024/02/23 01:46:53;;;;;;;;;;;;;;;;;;5034818;28;4579;-50
2024/02/23 01:49:18;;;;;;;;;;;;;;;;;;5034218;28;5259;-54
2024/02/23 01:51:44;;;;;;;;;;;;;;;;;;5038572;28;5126;-50
2024/02/23 01:54:09;;;;;;;;;;;;;;;;;;5045636;28;5055;-52
2024/02/23 01:56:36;;;;;;;;;;;;;;;;;;5042224;28;3332;-53
2024/02/23 01:59:03;;;;;;;;;;;;;;;;;;5024820;28;5076;-49
2024/02/23 02:01:28;;;;;;;;;;;;;;;;;;5009716;28;4884;-50
2024/02/23 02:03:53;;;;;;;;;;;;;;;;;;5039868;28;5125;-51
2024/02/23 02:06:19;;;;;;;;;;;;;;;;;;5026107;28;4789;-51
2024/02/23 02:08:44;;;;;;;;;;;;;;;;;;5020462;28;3247;-49
2024/02/23 02:11:09;;;;;;;;;;;;;;;;;;5045854;28;5132;-52
2024/02/23 02:13:35;;;;;;;;;;;;;;;;;;5005262;28;5144;-53
2024/02/23 02:16:00;;;;;;;;;;;;;;;;;;5003289;28;5213;-51
2024/02/23 02:18:25;;;;;;;;;;;;;;;;;;5043439;28;6030;-48
2024/02/23 02:20:52;;;;;;;;;;;;;;;;;;5027994;28;3350;-50
2024/02/23 02:23:18;;;;;;;;;;;;;;;;;;5029956;28;5110;-53
2024/02/23 02:25:43;;;;;;;;;;;;;;;;;;5034861;28;5112;-51
2024/02/23 02:28:08;;;;;;;;;;;;;;;;;;5036110;28;4840;-47
2024/02/23 02:30:34;;;;;;;;;;;;;;;;;;5030413;28;4489;-57
2024/02/23 02:32:59;;;;;;;;;;;;;;;;;;5033141;28;3258;-53
2024/02/23 02:35:24;;;;;;;;;;;;;;;;;;5026665;28;4850;-49
2024/02/23 02:37:50;;;;;;;;;;;;;;;;;;5028075;28;5128;-50
2024/02/23 02:40:16;;;;;;;;;;;;;;;;;;5025822;28;4552;-47
2024/02/23 02:42:41;;;;;;;;;;;;;;;;;;5018993;28;5010;-50
2024/02/23 02:45:06;;;;;;;;;;;;;;;;;;5031403;28;3402;-52
2024/02/23 02:47:32;;;;;;;;;;;;;;;;;;5025864;28;4960;-51
2024/02/23 02:49:57;;;;;;;;;;;;;;;;;;5036603;28;5147;-49
2024/02/23 02:52:23;;;;;;;;;;;;;;;;;;5036596;28;4618;-51
2024/02/23 02:54:49;;;;;;;;;;;;;;;;;;5029919;28;5016;-51
2024/02/23 02:57:14;;;;;;;;;;;;;;;;;;5037592;28;5243;-48
2024/02/23 02:59:39;;;;;;;;;;;;;;;;;;5032325;28;3514;-51
2024/02/23 03:02:05;;;;;;;;;;;;;;;;;;5025380;28;4624;-51
2024/02/23 03:04:30;;;;;;;;;;;;;;;;;;5022899;28;4665;-53
2024/02/23 03:06:55;;;;;;;;;;;;;;;;;;5039694;28;5201;-52
2024/02/23 03:09:21;;;;;;;;;;;;;;;;;;5046297;28;4476;-51
2024/02/23 03:11:46;;;;;;;;;;;;;;;;;;5041291;28;1061;-54
2024/02/23 03:14:12;;;;;;;;;;;;;;;;;;5041083;28;5088;-50
2024/02/23 03:16:37;;;;;;;;;;;;;;;;;;5038102;28;5090;-52
2024/02/23 03:19:03;;;;;;;;;;;;;;;;;;5037601;28;5426;-50
2024/02/23 03:21:28;;;;;;;;;;;;;;;;;;5044793;28;5113;-47
2024/02/23 03:23:54;;;;;;;;;;;;;;;;;;5010841;28;2290;-50
2024/02/23 03:26:19;;;;;;;;;;;;;;;;;;5040291;28;5015;-51
2024/02/23 03:28:44;;;;;;;;;;;;;;;;;;5035356;28;4507;-49
2024/02/23 03:31:09;;;;;;;;;;;;;;;;;;5031222;28;5111;-49
2024/02/23 03:33:35;;;;;;;;;;;;;;;;;;5022557;28;5997;-49
2024/02/23 03:36:00;;;;;;;;;;;;;;;;;;5047098;28;1038;-50
2024/02/23 03:38:26;;;;;;;;;;;;;;;;;;5041347;28;4988;-53
2024/02/23 03:40:51;;;;;;;;;;;;;;;;;;5042519;28;5108;-51
2024/02/23 03:43:16;;;;;;;;;;;;;;;;;;5031508;28;5070;-47
2024/02/23 03:45:41;;;;;;;;;;;;;;;;;;5044507;28;5157;-50
2024/02/23 03:48:07;;;;;;;;;;;;;;;;;;5038077;28;3250;-50
2024/02/23 03:50:32;;;;;;;;;;;;;;;;;;5040825;28;5777;-53
2024/02/23 03:52:57;;;;;;;;;;;;;;;;;;5038877;28;5037;-49
2024/02/23 03:55:23;;;;;;;;;;;;;;;;;;5039923;28;5151;-49
2024/02/23 03:57:48;;;;;;;;;;;;;;;;;;5041627;28;4594;-49
2024/02/23 04:00:14;;;;;;;;;;;;;;;;;;5036573;28;4660;-50
2024/02/23 04:02:39;;;;;;;;;;;;;;;;;;5026818;28;3243;-49
2024/02/23 04:05:05;;;;;;;;;;;;;;;;;;5034941;28;4563;-48
2024/02/23 04:07:30;;;;;;;;;;;;;;;;;;5039634;28;5130;-53
2024/02/23 04:09:56;;;;;;;;;;;;;;;;;;5019392;28;5215;-50
2024/02/23 04:12:21;;;;;;;;;;;;;;;;;;5040385;28;4930;-49
2024/02/23 04:14:47;;;;;;;;;;;;;;;;;;5033255;28;3191;-50
2024/02/23 04:17:12;;;;;;;;;;;;;;;;;;5040337;28;5079;-47
2024/02/23 04:19:37;;;;;;;;;;;;;;;;;;5015826;28;4906;-53
2024/02/23 04:22:03;;;;;;;;;;;;;;;;;;5026209;28;5094;-53
2024/02/23 04:24:28;;;;;;;;;;;;;;;;;;5035876;28;5172;-47
2024/02/23 04:26:54;;;;;;;;;;;;;;;;;;5021057;28;3306;-56
2024/02/23 04:29:19;;;;;;;;;;;;;;;;;;5022010;28;5100;-52
2024/02/23 04:31:44;;;;;;;;;;;;;;;;;;5023580;28;5056;-53
2024/02/23 04:34:10;;;;;;;;;;;;;;;;;;5006037;28;5608;-50
2024/02/23 04:36:35;;;;;;;;;;;;;;;;;;5022799;28;5122;-53
2024/02/23 04:39:01;;;;;;;;;;;;;;;;;;5029953;28;3477;-51
2024/02/23 04:41:26;;;;;;;;;;;;;;;;;;5042689;28;5302;-49
2024/02/23 04:43:52;;;;;;;;;;;;;;;;;;5031746;28;5357;-49
2024/02/23 04:46:17;;;;;;;;;;;;;;;;;;5024906;28;5223;-51
2024/02/23 04:48:42;;;;;;;;;;;;;;;;;;5029815;28;5832;-50
2024/02/23 04:51:09;;;;;;;;;;;;;;;;;;5020236;28;5118;-48
2024/02/23 04:53:38;;;;;;;;;;;;;;;;;;5040032;28;3318;-52
2024/02/23 04:56:03;;;;;;;;;;;;;;;;;;5031408;28;4971;-52
2024/02/23 04:58:29;;;;;;;;;;;;;;;;;;5026760;28;5412;-53
2024/02/23 05:00:55;;;;;;;;;;;;;;;;;;5034871;28;4981;-51
2024/02/23 05:03:20;;;;;;;;;;;;;;;;;;5027741;28;5243;-50
2024/02/23 05:05:45;;;;;;;;;;;;;;;;;;5023975;28;3330;-51
2024/02/23 05:08:11;;;;;;;;;;;;;;;;;;5029972;28;5200;-51
2024/02/23 05:10:36;;;;;;;;;;;;;;;;;;5051871;28;4979;-50
2024/02/23 05:13:01;;;;;;;;;;;;;;;;;;5020107;28;4618;-50
2024/02/23 05:15:27;;;;;;;;;;;;;;;;;;5032266;28;5267;-52
2024/02/23 05:17:52;;;;;;;;;;;;;;;;;;5026877;28;3306;-54
2024/02/23 05:20:17;;;;;;;;;;;;;;;;;;5022509;28;5105;-55
2024/02/23 05:22:43;;;;;;;;;;;;;;;;;;5022800;28;5083;-49
2024/02/23 05:25:08;;;;;;;;;;;;;;;;;;5051233;28;5149;-53
2024/02/23 05:27:34;;;;;;;;;;;;;;;;;;5032232;28;4706;-51
2024/02/23 05:29:59;;;;;;;;;;;;;;;;;;5040315;28;3290;-49
2024/02/23 05:32:25;;;;;;;;;;;;;;;;;;5037529;28;5068;-50
2024/02/23 05:34:52;;;;;;;;;;;;;;;;;;5021424;28;5211;-49
2024/02/23 05:37:18;;;;;;;;;;;;;;;;;;5030030;28;5051;-55
2024/02/23 05:39:45;;;;;;;;;;;;;;;;;;5023112;28;5130;-51
2024/02/23 05:42:11;;;;;;;;;;;;;;;;;;5020133;28;4531;-55
2024/02/23 05:44:36;;;;;;;;;;;;;;;;;;5055319;28;3347;-50
2024/02/23 05:47:02;;;;;;;;;;;;;;;;;;5022528;28;5076;-56
2024/02/23 05:49:27;;;;;;;;;;;;;;;;;;5016574;28;4588;-49
2024/02/23 05:51:52;;;;;;;;;;;;;;;;;;5042612;28;5322;-53
2024/02/23 05:54:18;;;;;;;;;;;;;;;;;;5028770;28;5490;-54
2024/02/23 05:56:44;;;;;;;;;;;;;;;;;;5020634;28;3424;-50
2024/02/23 05:59:09;;;;;;;;;;;;;;;;;;5031942;28;5230;-47
2024/02/23 06:01:34;;;;;;;;;;;;;;;;;;5043570;28;5271;-50
2024/02/23 06:03:59;;;;;;;;;;;;;;;;;;5005805;28;4937;-47
2024/02/23 06:06:25;;;;;;;;;;;;;;;;;;5025352;28;5145;-47
2024/02/23 06:08:50;;;;;;;;;;;;;;;;;;5034854;28;3252;-47
2024/02/23 06:11:16;;;;;;;;;;;;;;;;;;5030147;28;4602;-48
2024/02/23 06:13:41;;;;;;;;;;;;;;;;;;5029704;28;5059;-47
2024/02/23 06:16:10;;;;;;;;;;;;;;;;;;5013726;28;4615;-50
2024/02/23 06:18:35;;;;;;;;;;;;;;;;;;5020942;28;5510;-51
2024/02/23 06:21:01;;;;;;;;;;;;;;;;;;5022688;28;3414;-50
2024/02/23 06:23:26;;;;;;;;;;;;;;;;;;5026360;28;4816;-50
2024/02/23 06:25:51;;;;;;;;;;;;;;;;;;5027716;28;5038;-49
2024/02/23 06:28:17;;;;;;;;;;;;;;;;;;5020610;28;4511;-52
2024/02/23 06:30:42;;;;;;;;;;;;;;;;;;5010584;28;5025;-53
2024/02/23 06:33:08;;;;;;;;;;;;;;;;;;5027648;28;5165;-51
2024/02/23 06:35:33;;;;;;;;;;;;;;;;;;5020420;28;3480;-62
2024/02/23 06:37:59;;;;;;;;;;;;;;;;;;5020316;28;4956;-56
2024/02/23 06:40:24;;;;;;;;;;;;;;;;;;5015759;28;4789;-61
2024/02/23 06:42:50;;;;;;;;;;;;;;;;;;5032247;28;5004;-57
2024/02/23 06:45:15;;;;;;;;;;;;;;;;;;5028701;28;5223;-64
2024/02/23 06:47:42;;;;;;;;;;;;;;;;;;5025650;28;3297;-62
2024/02/23 06:50:08;;;;;;;;;;;;;;;;;;5021943;28;5733;-67
2024/02/23 06:52:33;;;;;;;;;;;;;;;;;;5037802;28;5026;-64
2024/02/23 06:54:59;;;;;;;;;;;;;;;;;;5023375;28;5523;-62
2024/02/23 06:57:25;;;;;;;;;;;;;;;;;;5026477;28;5042;-65
2024/02/23 06:59:51;;;;;;;;;;;;;;;;;;5049430;28;1166;-65
2024/02/23 07:02:16;;;;;;;;;;;;;;;;;;5052513;28;5030;-62
2024/02/23 07:04:41;;;;;;;;;;;;;;;;;;5018440;28;4475;-64
2024/02/23 07:07:08;;;;;;;;;;;;;;;;;;5036005;28;5032;-66
2024/02/23 07:09:33;;;;;;;;;;;;;;;;;;5040049;28;4484;-65
2024/02/23 07:11:59;;;;;;;;;;;;;;;;;;5043173;28;1287;-62
2024/02/23 07:14:24;;;;;;;;;;;;;;;;;;5037974;28;5026;-65
2024/02/23 07:16:51;;;;;;;;;;;;;;;;;;5041446;28;5063;-63
2024/02/23 07:19:16;;;;;;;;;;;;;;;;;;5034881;28;4577;-62
2024/02/23 07:21:41;;;;;;;;;;;;;;;;;;5038779;28;4633;-64
2024/02/23 07:24:07;;;;;;;;;;;;;;;;;;5042696;28;1217;-63
2024/02/23 07:26:32;;;;;;;;;;;;;;;;;;5035920;28;4911;-63
2024/02/23 07:28:57;;;;;;;;;;;;;;;;;;5040795;28;5043;-65
2024/02/23 07:31:23;;;;;;;;;;;;;;;;;;5038374;28;4975;-64
2024/02/23 07:33:48;;;;;;;;;;;;;;;;;;5020655;28;5121;-64
2024/02/23 07:36:14;;;;;;;;;;;;;;;;;;5033253;28;5046;-63
2024/02/23 07:38:39;;;;;;;;;;;;;;;;;;5029961;28;1050;-62
2024/02/23 07:41:05;;;;;;;;;;;;;;;;;;5041471;28;4871;-62
2024/02/23 07:43:30;;;;;;;;;;;;;;;;;;5044726;28;4990;-62
2024/02/23 07:45:55;;;;;;;;;;;;;;;;;;5034620;28;5134;-64
2024/02/23 07:48:21;;;;;;;;;;;;;;;;;;5040391;28;4991;-63
2024/02/23 07:50:46;;;;;;;;;;;;;;;;;;5038008;28;1059;-63
2024/02/23 07:53:12;;;;;;;;;;;;;;;;;;5041662;28;4854;-70
2024/02/23 07:55:37;;;;;;;;;;;;;;;;;;5042146;28;4480;-62
2024/02/23 07:58:02;;;;;;;;;;;;;;;;;;5039776;28;4981;-67
2024/02/23 08:00:28;;;;;;;;;;;;;;;;;;5038850;28;4979;-61
2024/02/23 08:02:56;;;;;;;;;;;;;;;;;;5041305;28;1421;-65
2024/02/23 08:05:21;;;;;;;;;;;;;;;;;;5037385;28;4794;-62
2024/02/23 08:07:47;;;;;;;;;;;;;;;;;;5041361;28;5077;-63
2024/02/23 08:10:12;;;;;;;;;;;;;;;;;;5017808;28;5054;-66
2024/02/23 08:12:38;;;;;;;;;;;;;;;;;;5039801;28;4604;-62
2024/02/23 08:15:03;;;;;;;;;;;;;;;;;;5037859;28;1065;-64
2024/02/23 08:17:29;;;;;;;;;;;;;;;;;;5030497;28;5016;-65
2024/02/23 08:19:54;;;;;;;;;;;;;;;;;;5041516;28;5320;-64
2024/02/23 08:22:20;;;;;;;;;;;;;;;;;;5042098;28;5025;-62
2024/02/23 08:24:45;;;;;;;;;;;;;;;;;;5038007;28;4692;-61
2024/02/23 08:27:11;;;;;;;;;;;;;;;;;;5038279;28;5053;-63
2024/02/23 08:29:39;;;;;;;;;;;;;;;;;;5040468;28;1136;-61
2024/02/23 08:32:05;;;;;;;;;;;;;;;;;;5050091;28;5035;-64
2024/02/23 08:34:30;;;;;;;;;;;;;;;;;;5024090;28;5974;-64
2024/02/23 08:36:55;;;;;;;;;;;;;;;;;;5035456;28;5036;-62
2024/02/23 08:39:22;;;;;;;;;;;;;;;;;;5035521;28;5080;-61
2024/02/23 08:41:47;;;;;;;;;;;;;;;;;;5046548;28;2161;-63
2024/02/23 08:44:12;;;;;;;;;;;;;;;;;;5037831;28;5035;-65
2024/02/23 08:46:39;;;;;;;;;;;;;;;;;;5044336;28;5044;-62
2024/02/23 08:49:04;;;;;;;;;;;;;;;;;;5042343;28;6009;-62
2024/02/23 08:51:30;;;;;;;;;;;;;;;;;;5044130;28;5109;-63
2024/02/23 08:53:57;;;;;;;;;;;;;;;;;;5039468;28;1254;-62
2024/02/23 08:56:22;;;;;;;;;;;;;;;;;;5038788;28;4910;-64
2024/02/23 08:58:47;;;;;;;;;;;;;;;;;;5040966;28;4634;-62
2024/02/23 09:01:13;;;;;;;;;;;;;;;;;;5026473;28;4510;-64
2024/02/23 09:03:38;;;;;;;;;;;;;;;;;;5035096;28;5430;-62
2024/02/23 09:06:03;;;;;;;;;;;;;;;;;;5040444;28;1918;-63
2024/02/23 09:08:29;;;;;;;;;;;;;;;;;;5037585;28;4689;-62
2024/02/23 09:10:54;;;;;;;;;;;;;;;;;;5039558;28;5017;-65
2024/02/23 09:13:19;;;;;;;;;;;;;;;;;;5042879;28;4649;-61
2024/02/23 09:15:45;;;;;;;;;;;;;;;;;;5040879;28;5144;-62
2024/02/23 09:18:10;;;;;;;;;;;;;;;;;;5039976;28;5206;-64
2024/02/23 09:20:35;;;;;;;;;;;;;;;;;;5041019;28;1156;-64
2024/02/23 09:23:01;;;;;;;;;;;;;;;;;;5043654;28;4937;-63
2024/02/23 09:25:26;;;;;;;;;;;;;;;;;;5037299;28;5177;-62
2024/02/23 09:27:51;;;;;;;;;;;;;;;;;;5041758;28;5052;-63
2024/02/23 09:30:16;;;;;;;;;;;;;;;;;;5043000;28;5168;-64
2024/02/23 09:32:44;;;;;;;;;;;;;;;;;;5034867;28;1418;-69
2024/02/23 09:35:09;;;;;;;;;;;;;;;;;;5027229;28;4951;-61
2024/02/23 09:37:34;;;;;;;;;;;;;;;;;;5032076;28;4872;-64
2024/02/23 09:40:00;;;;;;;;;;;;;;;;;;5031064;28;5463;-62
2024/02/23 09:42:26;;;;;;;;;;;;;;;;;;5043224;28;5017;-64
2024/02/23 09:45:01;;;;;;;;;;;;;;;;;;5056020;28;1163;-63
2024/02/23 09:47:26;;;;;;;;;;;;;;;;;;5053921;28;4562;-62
2024/02/23 09:49:52;;;;;;;;;;;;;;;;;;5046908;28;4666;-65
2024/02/23 09:52:18;;;;;;;;;;;;;;;;;;5051791;28;4873;-64
2024/02/23 09:54:43;;;;;;;;;;;;;;;;;;5026405;28;4944;-65
2024/02/23 09:57:08;;;;;;;;;;;;;;;;;;5041201;28;5084;-61
2024/02/23 09:59:34;;;;;;;;;;;;;;;;;;5042996;28;1065;-62
2024/02/23 10:01:59;;;;;;;;;;;;;;;;;;5031674;28;4856;-62
2024/02/23 10:04:25;;;;;;;;;;;;;;;;;;5029591;28;4504;-62
2024/02/23 10:06:51;;;;;;;;;;;;;;;;;;5041793;28;5097;-65
2024/02/23 10:09:16;;;;;;;;;;;;;;;;;;5036815;28;4871;-61
2024/02/23 10:11:41;;;;;;;;;;;;;;;;;;5039863;28;1050;-64
2024/02/23 10:14:07;;;;;;;;;;;;;;;;;;5043338;28;4986;-65
2024/02/23 10:16:32;;;;;;;;;;;;;;;;;;5036275;28;4501;-63
2024/02/23 10:18:57;;;;;;;;;;;;;;;;;;5056246;28;5060;-62
2024/02/23 10:21:25;;;;;;;;;;;;;;;;;;5049408;28;4662;-63
2024/02/23 10:23:51;;;;;;;;;;;;;;;;;;5032832;28;1128;-62
2024/02/23 10:26:18;;;;;;;;;;;;;;;;;;5039235;28;5693;-61
2024/02/23 10:28:45;;;;;;;;;;;;;;;;;;5038419;28;4646;-63
2024/02/23 10:31:10;;;;;;;;;;;;;;;;;;5040422;28;5068;-61
2024/02/23 10:33:36;;;;;;;;;;;;;;;;;;5028690;28;5128;-64
2024/02/23 10:36:01;;;;;;;;;;;;;;;;;;5045423;28;2408;-63
2024/02/23 10:38:27;;;;;;;;;;;;;;;;;;5043738;28;4977;-61
2024/02/23 10:40:54;;;;;;;;;;;;;;;;;;5039120;28;5050;-63
2024/02/23 10:43:20;;;;;;;;;;;;;;;;;;5042431;28;4909;-62
2024/02/23 10:45:46;;;;;;;;;;;;;;;;;;5036646;28;5076;-63
2024/02/23 10:48:11;;;;;;;;;;;;;;;;;;5034691;28;4544;-63
2024/02/23 10:50:37;;;;;;;;;;;;;;;;;;5026426;28;1110;-61
2024/02/23 10:53:04;;;;;;;;;;;;;;;;;;5037898;28;4856;-62
2024/02/23 10:55:29;;;;;;;;;;;;;;;;;;5037278;28;5177;-61
2024/02/23 10:57:54;;;;;;;;;;;;;;;;;;5046070;28;4494;-62
2024/02/23 11:00:21;;;;;;;;;;;;;;;;;;5035918;28;5293;-61
2024/02/23 11:02:48;;;;;;;;;;;;;;;;;;5057259;28;1413;-65
2024/02/23 11:05:14;;;;;;;;;;;;;;;;;;5024709;28;4487;-63
2024/02/23 11:07:39;;;;;;;;;;;;;;;;;;5059018;28;5031;-61
2024/02/23 11:10:05;;;;;;;;;;;;;;;;;;5041498;28;4873;-62
2024/02/23 11:12:30;;;;;;;;;;;;;;;;;;5042871;28;4987;-64
2024/02/23 11:14:59;;;;;;;;;;;;;;;;;;5046132;28;1062;-62
2024/02/23 11:17:30;;;;;;;;;;;;;;;;;;5035448;28;4589;-62
2024/02/23 11:19:56;;;;;;;;;;;;;;;;;;5043537;28;4457;-63
2024/02/23 11:22:30;;;;;;;;;;;;;;;;;;5044803;28;4971;-64
2024/02/23 11:24:59;;;;;;;;;;;;;;;;;;5027563;28;5050;-63
2024/02/23 11:27:24;;;;;;;;;;;;;;;;;;5040940;28;5029;-65
2024/02/23 11:29:58;;;;;;;;;;;;;;;;;;5064478;28;1385;-61
2024/02/23 11:32:23;;;;;;;;;;;;;;;;;;5027633;28;5048;-62
2024/02/23 11:34:58;;;;;;;;;;;;;;;;;;5048350;28;5141;-64
2024/02/23 11:37:23;;;;;;;;;;;;;;;;;;5034925;28;5076;-62
2024/02/23 11:39:48;;;;;;;;;;;;;;;;;;5034017;28;5568;-62
2024/02/23 11:42:14;;;;;;;;;;;;;;;;;;5046313;28;5185;-63
2024/02/23 11:44:39;;;;;;;;;;;;;;;;;;5039853;28;1161;-65
2024/02/23 11:47:05;;;;;;;;;;;;;;;;;;5040056;28;5176;-61
2024/02/23 11:49:30;;;;;;;;;;;;;;;;;;5046668;28;4904;-63
2024/02/23 11:51:55;;;;;;;;;;;;;;;;;;5041877;28;5080;-62
2024/02/23 11:54:21;;;;;;;;;;;;;;;;;;5043474;28;4864;-61
2024/02/23 11:56:48;;;;;;;;;;;;;;;;;;5043883;28;1145;-63
2024/02/23 11:59:14;;;;;;;;;;;;;;;;;;5042378;28;5106;-62
2024/02/23 12:01:39;;;;;;;;;;;;;;;;;;5036830;28;5015;-62
2024/02/23 12:04:05;;;;;;;;;;;;;;;;;;5018236;28;5155;-64
2024/02/23 12:06:32;;;;;;;;;;;;;;;;;;5041997;28;5212;-64
2024/02/23 12:08:57;;;;;;;;;;;;;;;;;;5057158;28;1163;-62
2024/02/23 12:11:23;;;;;;;;;;;;;;;;;;5040651;28;5001;-62
2024/02/23 12:13:49;;;;;;;;;;;;;;;;;;5042406;28;5097;-62
2024/02/23 12:16:14;;;;;;;;;;;;;;;;;;5053163;28;5008;-62
2024/02/23 12:18:39;;;;;;;;;;;;;;;;;;5027603;28;5067;-63
2024/02/23 12:21:06;;;;;;;;;;;;;;;;;;5042404;28;1018;-65
2024/02/23 12:23:43;;;;;;;;;;;;;;;;;;5044064;28;5707;-63
2024/02/23 12:26:08;;;;;;;;;;;;;;;;;;5035554;28;5075;-62
2024/02/23 12:28:34;;;;;;;;;;;;;;;;;;5041284;28;5255;-63
2024/02/23 12:31:00;;;;;;;;;;;;;;;;;;5039708;28;4878;-62
2024/02/23 12:33:31;;;;;;;;;;;;;;;;;;5030519;28;4507;-62
2024/02/23 12:35:57;;;;;;;;;;;;;;;;;;5036659;28;1152;-64
2024/02/23 12:38:23;;;;;;;;;;;;;;;;;;5029846;28;5108;-63
2024/02/23 12:40:48;;;;;;;;;;;;;;;;;;5040637;28;5265;-61
2024/02/23 12:43:13;;;;;;;;;;;;;;;;;;5041792;28;5074;-62
2024/02/23 12:45:39;;;;;;;;;;;;;;;;;;5038931;28;4974;-62
2024/02/23 12:48:04;;;;;;;;;;;;;;;;;;5043573;28;1081;-63
2024/02/23 12:50:30;;;;;;;;;;;;;;;;;;5043847;28;5038;-62
2024/02/23 12:52:55;;;;;;;;;;;;;;;;;;5041332;28;5002;-65
2024/02/23 12:55:21;;;;;;;;;;;;;;;;;;5040773;28;4882;-63
2024/02/23 12:57:46;;;;;;;;;;;;;;;;;;5047520;28;5025;-61
2024/02/23 13:00:12;;;;;;;;;;;;;;;;;;5038635;28;4629;-64
2024/02/23 13:02:37;;;;;;;;;;;;;;;;;;5044251;28;1626;-65
2024/02/23 13:05:03;;;;;;;;;;;;;;;;;;5033475;28;5126;-62
2024/02/23 13:07:28;;;;;;;;;;;;;;;;;;5044468;28;5662;-64
2024/02/23 13:09:53;;;;;;;;;;;;;;;;;;5038428;28;5143;-64
2024/02/23 13:12:19;;;;;;;;;;;;;;;;;;5042321;28;4878;-62
2024/02/23 13:14:44;;;;;;;;;;;;;;;;;;5059369;28;1285;-62
2024/02/23 13:17:10;;;;;;;;;;;;;;;;;;5040512;28;4892;-65
2024/02/23 13:19:35;;;;;;;;;;;;;;;;;;5040175;28;4633;-62
2024/02/23 13:22:00;;;;;;;;;;;;;;;;;;5046456;28;4466;-62
2024/02/23 13:24:26;;;;;;;;;;;;;;;;;;5029824;28;5007;-62
2024/02/23 13:26:51;;;;;;;;;;;;;;;;;;5044816;28;1980;-65
2024/02/23 13:29:17;;;;;;;;;;;;;;;;;;5035809;28;4999;-65
2024/02/23 13:31:43;;;;;;;;;;;;;;;;;;5038592;28;4683;-63
2024/02/23 13:34:09;;;;;;;;;;;;;;;;;;5025559;28;5020;-62
2024/02/23 13:36:34;;;;;;;;;;;;;;;;;;5036424;28;5211;-68
2024/02/23 13:39:00;;;;;;;;;;;;;;;;;;5029948;28;1301;-61
2024/02/23 13:41:25;;;;;;;;;;;;;;;;;;5058856;28;5018;-64
2024/02/23 13:43:50;;;;;;;;;;;;;;;;;;5041182;28;5058;-63
2024/02/23 13:46:16;;;;;;;;;;;;;;;;;;5040491;28;5059;-62
2024/02/23 13:48:41;;;;;;;;;;;;;;;;;;5039495;28;4495;-62
2024/02/23 13:51:06;;;;;;;;;;;;;;;;;;5037986;28;1154;-61
2024/02/23 13:53:32;;;;;;;;;;;;;;;;;;5037593;28;4792;-63
2024/02/23 13:55:58;;;;;;;;;;;;;;;;;;5041867;28;4926;-61
2024/02/23 13:58:23;;;;;;;;;;;;;;;;;;5034686;28;5005;-62
2024/02/23 14:00:48;;;;;;;;;;;;;;;;;;5039539;28;5105;-62
2024/02/23 14:03:15;;;;;;;;;;;;;;;;;;5021613;28;5096;-62
2024/02/23 14:05:44;;;;;;;;;;;;;;;;;;5043162;28;1993;-62
2024/02/23 14:08:09;;;;;;;;;;;;;;;;;;5034279;28;4451;-61
2024/02/23 14:10:35;;;;;;;;;;;;;;;;;;5043222;28;4629;-63
2024/02/23 14:13:00;;;;;;;;;;;;;;;;;;5040963;28;5079;-61
2024/02/23 14:15:27;;;;;;;;;;;;;;;;;;5043268;28;5068;-62
2024/02/23 14:17:52;;;;;;;;;;;;;;;;;;5037969;28;1374;-64
2024/02/23 14:20:17;;;;;;;;;;;;;;;;;;5034271;28;4624;-63
2024/02/23 14:22:43;;;;;;;;;;;;;;;;;;5042327;28;5038;-66
2024/02/23 14:25:08;;;;;;;;;;;;;;;;;;5039744;28;4871;-63
2024/02/23 14:27:33;;;;;;;;;;;;;;;;;;5039027;28;5345;-65
2024/02/23 14:29:59;;;;;;;;;;;;;;;;;;5047137;28;1172;-68
2024/02/23 14:32:24;;;;;;;;;;;;;;;;;;5035287;28;4721;-66
2024/02/23 14:34:49;;;;;;;;;;;;;;;;;;5027928;28;4497;-62
2024/02/23 14:37:15;;;;;;;;;;;;;;;;;;5033009;28;5038;-61
2024/02/23 14:39:40;;;;;;;;;;;;;;;;;;5033580;28;4662;-62
2024/02/23 14:42:08;;;;;;;;;;;;;;;;;;5049503;28;1207;-63
2024/02/23 14:44:33;;;;;;;;;;;;;;;;;;5056242;28;4467;-67
2024/02/23 14:46:59;;;;;;;;;;;;;;;;;;5045876;28;5050;-63
2024/02/23 14:49:24;;;;;;;;;;;;;;;;;;5041210;28;5000;-65
2024/02/23 14:51:49;;;;;;;;;;;;;;;;;;5044465;28;4932;-63
2024/02/23 14:54:15;;;;;;;;;;;;;;;;;;5043905;28;5230;-62
2024/02/23 14:56:40;;;;;;;;;;;;;;;;;;5045464;28;1097;-62
2024/02/23 14:59:11;;;;;;;;;;;;;;;;;;5046601;28;5039;-62
2024/02/23 15:01:37;;;;;;;;;;;;;;;;;;5040774;28;5093;-63
2024/02/23 15:04:03;;;;;;;;;;;;;;;;;;5038568;28;4492;-65
2024/02/23 15:06:28;;;;;;;;;;;;;;;;;;5045950;28;4651;-62
2024/02/23 15:08:53;;;;;;;;;;;;;;;;;;5043819;28;979;-62
2024/02/23 15:11:19;;;;;;;;;;;;;;;;;;5044363;28;5150;-69
2024/02/23 15:13:44;;;;;;;;;;;;;;;;;;5040808;28;4496;-65
2024/02/23 15:16:09;;;;;;;;;;;;;;;;;;5037565;28;5030;-65
2024/02/23 15:18:35;;;;;;;;;;;;;;;;;;5046415;28;5290;-62
2024/02/23 15:21:00;;;;;;;;;;;;;;;;;;5039763;28;1172;-63
2024/02/23 15:23:26;;;;;;;;;;;;;;;;;;5042856;28;5198;-63
2024/02/23 15:25:51;;;;;;;;;;;;;;;;;;5040997;28;4950;-63
2024/02/23 15:28:22;;;;;;;;;;;;;;;;;;5045407;28;4497;-62
2024/02/23 15:30:48;;;;;;;;;;;;;;;;;;5034981;28;5019;-62
2024/02/23 15:33:14;;;;;;;;;;;;;;;;;;5035231;28;5093;-62
2024/02/23 15:35:39;;;;;;;;;;;;;;;;;;5032369;28;1182;-63
2024/02/23 15:38:05;;;;;;;;;;;;;;;;;;5049022;28;4968;-64
2024/02/23 15:40:30;;;;;;;;;;;;;;;;;;5039080;28;4480;-63
2024/02/23 15:42:55;;;;;;;;;;;;;;;;;;5045847;28;5185;-66
2024/02/23 15:45:21;;;;;;;;;;;;;;;;;;5039790;28;4964;-71
2024/02/23 15:47:46;;;;;;;;;;;;;;;;;;5043780;28;1056;-62
2024/02/23 15:50:11;;;;;;;;;;;;;;;;;;5045918;28;4598;-61
2024/02/23 15:52:37;;;;;;;;;;;;;;;;;;5040351;28;4457;-62
2024/02/23 15:55:02;;;;;;;;;;;;;;;;;;5045009;28;4995;-62
2024/02/23 15:57:28;;;;;;;;;;;;;;;;;;5037720;28;4648;-64
2024/02/23 15:59:53;;;;;;;;;;;;;;;;;;5042769;28;1326;-64
2024/02/23 16:02:19;;;;;;;;;;;;;;;;;;5042934;28;4941;-65
2024/02/23 16:04:44;;;;;;;;;;;;;;;;;;5050068;28;4908;-63
2024/02/23 16:07:09;;;;;;;;;;;;;;;;;;5039880;28;5087;-62
2024/02/23 16:09:35;;;;;;;;;;;;;;;;;;5033441;28;4522;-63
2024/02/23 16:12:00;;;;;;;;;;;;;;;;;;5031858;28;2042;-60
2024/02/23 16:14:26;;;;;;;;;;;;;;;;;;5028551;28;5086;-63
2024/02/23 16:16:53;;;;;;;;;;;;;;;;;;5016682;28;5535;-63
2024/02/23 16:19:18;;;;;;;;;;;;;;;;;;5030297;28;4533;-62
2024/02/23 16:21:45;;;;;;;;;;;;;;;;;;5033194;28;4472;-66
2024/02/23 16:24:11;;;;;;;;;;;;;;;;;;5028679;28;5001;-63
2024/02/23 16:26:38;;;;;;;;;;;;;;;;;;5035694;28;1985;-66
2024/02/23 16:29:04;;;;;;;;;;;;;;;;;;5028722;28;4976;-63
2024/02/23 16:31:29;;;;;;;;;;;;;;;;;;5030181;28;4502;-60
2024/02/23 16:33:54;;;;;;;;;;;;;;;;;;5032718;28;5075;-62
2024/02/23 16:36:19;;;;;;;;;;;;;;;;;;5029338;28;5118;-61
2024/02/23 16:38:45;;;;;;;;;;;;;;;;;;5029414;28;1117;-61
2024/02/23 16:41:10;;;;;;;;;;;;;;;;;;5030056;28;4597;-60
2024/02/23 16:43:35;;;;;;;;;;;;;;;;;;5028668;28;5089;-64
2024/02/23 16:46:01;;;;;;;;;;;;;;;;;;5035110;28;5104;-61
2024/02/23 16:48:26;;;;;;;;;;;;;;;;;;5027658;28;5023;-60
2024/02/23 16:50:51;;;;;;;;;;;;;;;;;;5011965;28;1270;-63